createdAt,value
2022-10-15T00:07:00.411Z,5.49
2022-10-15T00:17:02.253Z,5.75
2022-10-15T00:27:07.459Z,5.87
2022-10-15T00:37:11.166Z,5.89
2022-10-15T00:47:20.580Z,5.67
2022-10-15T00:57:22.565Z,5.70
2022-10-15T01:07:24.688Z,5.37
2022-10-15T01:17:45.272Z,5.42
2022-10-15T01:27:53.330Z,5.28
2022-10-15T01:37:58.732Z,5.22
2022-10-15T01:48:09.757Z,5.28
2022-10-15T01:58:25.879Z,5.55
2022-10-15T02:08:57.469Z,5.53
2022-10-15T02:19:29.066Z,5.46
2022-10-15T02:29:45.061Z,5.36
2022-10-15T02:40:15.953Z,5.29
2022-10-15T02:50:36.505Z,5.28
2022-10-15T03:00:47.867Z,5.39
2022-10-15T03:10:52.486Z,5.74
2022-10-15T03:20:56.819Z,5.78
2022-10-15T03:30:58.634Z,5.49
2022-10-15T03:41:03.628Z,5.16
2022-10-15T03:51:05.526Z,4.95
2022-10-15T04:01:15.195Z,4.93
2022-10-15T04:11:17.093Z,4.86
2022-10-15T04:21:19.112Z,4.83
2022-10-15T04:31:22.914Z,4.86
2022-10-15T04:41:25.024Z,4.90
2022-10-15T04:51:34.049Z,4.99
2022-10-15T05:01:46.247Z,5.10
2022-10-15T05:11:51.050Z,5.36
2022-10-15T05:21:53.907Z,5.81
2022-10-15T06:59:14.827Z,12.02
2022-10-15T07:09:16.960Z,12.46
2022-10-15T07:19:29.725Z,13.28
2022-10-15T07:29:31.584Z,13.85
2022-10-15T07:39:35.446Z,13.77
2022-10-15T07:49:39.192Z,14.30
2022-10-15T07:59:40.811Z,14.96
2022-10-15T08:09:42.544Z,15.21
2022-10-15T08:19:45.442Z,15.27
2022-10-15T08:29:47.108Z,15.37
2022-10-15T08:39:51.145Z,16.45
2022-10-15T08:49:59.058Z,16.92
2022-10-15T09:00:12.731Z,16.99
2022-10-15T09:10:40.727Z,17.62
2022-10-15T09:20:42.630Z,17.46
2022-10-15T09:45:54.397Z,17.34
2022-10-15T09:53:40.072Z,18.03
2022-10-15T10:03:41.972Z,17.79
2022-10-15T10:14:42.178Z,18.34
2022-10-15T10:24:38.200Z,17.74
2022-10-15T11:09:06.643Z,19.45
2022-10-15T11:19:18.848Z,18.68
2022-10-15T11:29:41.001Z,19.22
2022-10-15T11:40:01.322Z,19.85
2022-10-15T11:50:05.341Z,19.75
2022-10-15T12:11:45.114Z,20.41
2022-10-15T12:21:56.665Z,19.59
2022-10-15T12:31:58.268Z,19.79
2022-10-15T12:42:00.265Z,19.75
2022-10-15T12:52:03.451Z,20.11
2022-10-15T13:02:25.526Z,19.82
2022-10-15T13:12:28.830Z,20.52
2022-10-15T13:22:31.526Z,20.37
2022-10-15T13:32:37.141Z,19.74
2022-10-15T13:42:38.864Z,19.49
2022-10-15T13:52:47.865Z,19.35
2022-10-15T14:03:06.842Z,19.24
2022-10-15T14:13:09.668Z,18.81
2022-10-15T14:23:15.708Z,17.26
2022-10-15T14:33:37.525Z,15.34
2022-10-15T14:43:39.114Z,13.94
2022-10-15T14:53:45.053Z,13.16
2022-10-15T15:03:48.828Z,12.47
2022-10-15T15:13:51.623Z,11.47
2022-10-15T15:23:53.169Z,11.09
2022-10-15T15:33:54.741Z,10.68
2022-10-15T15:43:56.406Z,10.13
2022-10-15T15:53:58.504Z,9.51
2022-10-15T16:04:00.124Z,9.31
2022-10-15T16:14:03.724Z,9.19
2022-10-15T16:24:07.431Z,8.73
2022-10-15T16:34:10.058Z,8.43
2022-10-15T16:44:11.579Z,8.02
2022-10-15T16:54:13.933Z,7.85
2022-10-15T17:04:15.560Z,7.79
2022-10-15T17:14:17.931Z,7.59
2022-10-15T17:24:19.745Z,7.23
2022-10-15T17:34:21.763Z,7.14
2022-10-15T17:44:23.268Z,7.06
2022-10-15T17:54:24.775Z,7.06
2022-10-15T18:04:27.743Z,7.01
2022-10-15T18:14:29.607Z,7.06
2022-10-15T18:24:33.612Z,6.88
2022-10-15T18:34:35.892Z,6.78
2022-10-15T18:44:38.942Z,6.57
2022-10-15T18:54:40.408Z,6.48
2022-10-15T19:04:42.005Z,6.37
2022-10-15T19:14:43.904Z,6.24
2022-10-15T19:24:45.508Z,6.13
2022-10-15T19:34:47.056Z,6.07
2022-10-15T19:44:48.918Z,6.04
2022-10-15T19:54:50.420Z,5.93
2022-10-15T20:04:51.977Z,5.80
2022-10-15T20:14:53.558Z,5.72
2022-10-15T20:24:55.087Z,5.64
2022-10-15T20:34:56.637Z,5.57
2022-10-15T20:44:58.193Z,5.59
2022-10-15T20:54:59.880Z,5.45
2022-10-15T21:05:01.835Z,5.34
2022-10-15T21:15:04.108Z,5.28
2022-10-15T21:25:05.893Z,5.21
2022-10-15T21:35:07.587Z,5.25
2022-10-15T21:45:09.498Z,5.20
2022-10-15T21:55:11.091Z,4.94
2022-10-15T22:05:12.649Z,4.93
2022-10-15T22:15:14.147Z,5.07
2022-10-15T22:25:15.673Z,4.80
2022-10-15T22:35:17.229Z,4.54
2022-10-15T22:45:18.813Z,4.67
2022-10-15T22:55:20.348Z,4.74
2022-10-15T23:05:21.819Z,4.78
2022-10-15T23:15:23.307Z,4.36
2022-10-15T23:25:24.809Z,4.21
2022-10-15T23:35:26.325Z,4.46
2022-10-15T23:45:27.898Z,4.69
2022-10-15T23:55:29.352Z,4.31
